KFAM/FAM METAR and TAF weather

Enter ICAO airport designator
Station Type Date Time Source
KFAM METAR 2019/02/16 16:56 UTC NOAA

KFAM 161656Z AUTO 05006KT 10SM CLR M03/M08 A3001 RMK AO2 SLP174 T10281083 FZRANO


Station Type Date Time Source
KFAM Decoded METAR 2019/02/16 16:56 UTC NOAA

Farmington Airport, MO, United States (KFAM) 37-46N 090-26W
Feb 16, 2019 - 11:56 AM EST / 2019.02.16 1656 UTC
Wind: from the NE (050 degrees) at 7 MPH (6 KT):0
Visibility: 10 mile(s):0
Sky conditions: clear
Temperature: 27.0 F (-2.8 C)
Windchill: 19 F (-7 C):1
Dew Point: 17.1 F (-8.3 C)
Relative Humidity: 65%
Pressure (altimeter): 30.01 in. Hg (1016 hPa)
ob: KFAM 161656Z AUTO 05006KT 10SM CLR M03/M08 A3001 RMK AO2 SLP174 T10281083 FZRANO
cycle: 17

Station Type Date Time Source
KFAM TAF UTC NOAA

Error!


Example: see airport list